sensor_id;sensor_type;location;lat;lon;timestamp;pressure;altitude;pressure_sealevel;temperature
69704;BMP280;56967;43.538;-5.646;2023-04-15T00:00:15;101580.75;;;17.18
69704;BMP280;56967;43.538;-5.646;2023-04-15T00:02:41;101588.00;;;17.23
69704;BMP280;56967;43.538;-5.646;2023-04-15T00:05:07;101588.44;;;17.20
69704;BMP280;56967;43.538;-5.646;2023-04-15T00:07:32;101590.56;;;17.18
69704;BMP280;56967;43.538;-5.646;2023-04-15T00:09:58;101580.47;;;17.20
69704;BMP280;56967;43.538;-5.646;2023-04-15T00:12:24;101574.09;;;16.93
69704;BMP280;56967;43.538;-5.646;2023-04-15T00:14:50;101554.47;;;16.94
69704;BMP280;56967;43.538;-5.646;2023-04-15T00:17:16;101553.44;;;16.95
69704;BMP280;56967;43.538;-5.646;2023-04-15T00:19:42;101559.28;;;17.08
69704;BMP280;56967;43.538;-5.646;2023-04-15T00:22:09;101553.09;;;16.91
69704;BMP280;56967;43.538;-5.646;2023-04-15T00:24:34;101563.00;;;16.96
69704;BMP280;56967;43.538;-5.646;2023-04-15T00:27:00;101552.88;;;16.81
69704;BMP280;56967;43.538;-5.646;2023-04-15T00:29:25;101552.56;;;16.78
69704;BMP280;56967;43.538;-5.646;2023-04-15T00:31:51;101564.31;;;16.82
69704;BMP280;56967;43.538;-5.646;2023-04-15T00:34:16;101565.25;;;16.76
69704;BMP280;56967;43.538;-5.646;2023-04-15T00:36:43;101559.47;;;16.79
69704;BMP280;56967;43.538;-5.646;2023-04-15T00:39:08;101552.34;;;16.67
69704;BMP280;56967;43.538;-5.646;2023-04-15T00:41:34;101530.88;;;16.57
69704;BMP280;56967;43.538;-5.646;2023-04-15T00:44:06;101542.19;;;16.64
69704;BMP280;56967;43.538;-5.646;2023-04-15T00:46:34;101553.81;;;16.75
69704;BMP280;56967;43.538;-5.646;2023-04-15T00:49:03;101555.09;;;16.84
69704;BMP280;56967;43.538;-5.646;2023-04-15T00:51:28;101552.47;;;16.73
69704;BMP280;56967;43.538;-5.646;2023-04-15T00:53:56;101550.63;;;16.61
69704;BMP280;56967;43.538;-5.646;2023-04-15T00:56:22;101560.44;;;16.73
69704;BMP280;56967;43.538;-5.646;2023-04-15T00:58:49;101551.75;;;16.77
69704;BMP280;56967;43.538;-5.646;2023-04-15T01:01:18;101420.47;;;16.45
69704;BMP280;56967;43.538;-5.646;2023-04-15T01:03:46;101491.41;;;16.61
69704;BMP280;56967;43.538;-5.646;2023-04-15T01:06:12;101499.72;;;16.64
69704;BMP280;56967;43.538;-5.646;2023-04-15T01:08:38;101520.84;;;16.59
69704;BMP280;56967;43.538;-5.646;2023-04-15T01:11:04;101504.34;;;16.57
69704;BMP280;56967;43.538;-5.646;2023-04-15T01:13:30;101505.72;;;16.60
69704;BMP280;56967;43.538;-5.646;2023-04-15T01:15:58;101511.31;;;16.75
69704;BMP280;56967;43.538;-5.646;2023-04-15T01:18:24;101508.56;;;16.70
69704;BMP280;56967;43.538;-5.646;2023-04-15T01:20:49;101527.63;;;16.67
69704;BMP280;56967;43.538;-5.646;2023-04-15T01:23:15;101523.78;;;16.75
69704;BMP280;56967;43.538;-5.646;2023-04-15T01:25:42;101528.78;;;16.71
69704;BMP280;56967;43.538;-5.646;2023-04-15T01:28:09;101542.06;;;16.71
69704;BMP280;56967;43.538;-5.646;2023-04-15T01:30:35;101534.31;;;16.69
69704;BMP280;56967;43.538;-5.646;2023-04-15T01:33:00;101541.25;;;16.71
69704;BMP280;56967;43.538;-5.646;2023-04-15T01:35:26;101531.31;;;16.66
69704;BMP280;56967;43.538;-5.646;2023-04-15T01:37:53;101542.88;;;16.72
69704;BMP280;56967;43.538;-5.646;2023-04-15T01:40:19;101561.06;;;16.80
69704;BMP280;56967;43.538;-5.646;2023-04-15T01:42:45;101569.16;;;16.85
69704;BMP280;56967;43.538;-5.646;2023-04-15T01:45:11;101587.97;;;16.83
69704;BMP280;56967;43.538;-5.646;2023-04-15T01:47:37;101583.47;;;16.84
69704;BMP280;56967;43.538;-5.646;2023-04-15T01:50:03;101578.53;;;16.76
69704;BMP280;56967;43.538;-5.646;2023-04-15T01:52:29;101582.69;;;16.72
69704;BMP280;56967;43.538;-5.646;2023-04-15T01:54:54;101580.47;;;16.80
69704;BMP280;56967;43.538;-5.646;2023-04-15T01:57:20;101573.00;;;16.77
69704;BMP280;56967;43.538;-5.646;2023-04-15T01:59:46;101582.66;;;16.95
69704;BMP280;56967;43.538;-5.646;2023-04-15T02:02:11;101602.63;;;16.86
69704;BMP280;56967;43.538;-5.646;2023-04-15T02:04:37;101606.81;;;16.82
69704;BMP280;56967;43.538;-5.646;2023-04-15T02:07:02;101608.66;;;16.81
69704;BMP280;56967;43.538;-5.646;2023-04-15T02:09:28;101610.16;;;16.77
69704;BMP280;56967;43.538;-5.646;2023-04-15T02:11:54;101611.53;;;16.80
69704;BMP280;56967;43.538;-5.646;2023-04-15T02:14:19;101608.53;;;16.76
69704;BMP280;56967;43.538;-5.646;2023-04-15T02:16:45;101625.84;;;16.79
69704;BMP280;56967;43.538;-5.646;2023-04-15T02:19:10;101626.78;;;16.84
69704;BMP280;56967;43.538;-5.646;2023-04-15T02:21:36;101626.78;;;16.84
69704;BMP280;56967;43.538;-5.646;2023-04-15T02:24:02;101618.25;;;16.82
69704;BMP280;56967;43.538;-5.646;2023-04-15T02:26:28;101611.19;;;16.88
69704;BMP280;56967;43.538;-5.646;2023-04-15T02:28:56;101607.38;;;16.84
69704;BMP280;56967;43.538;-5.646;2023-04-15T02:31:22;101608.19;;;16.84
69704;BMP280;56967;43.538;-5.646;2023-04-15T02:33:47;101601.50;;;16.82
69704;BMP280;56967;43.538;-5.646;2023-04-15T02:36:13;101591.66;;;16.94
69704;BMP280;56967;43.538;-5.646;2023-04-15T02:38:39;101600.66;;;17.04
69704;BMP280;56967;43.538;-5.646;2023-04-15T02:41:06;101611.28;;;17.04
69704;BMP280;56967;43.538;-5.646;2023-04-15T02:43:32;101607.72;;;16.99
69704;BMP280;56967;43.538;-5.646;2023-04-15T02:45:58;101600.41;;;17.06
69704;BMP280;56967;43.538;-5.646;2023-04-15T02:48:23;101599.97;;;16.97
69704;BMP280;56967;43.538;-5.646;2023-04-15T02:50:49;101581.56;;;17.07
69704;BMP280;56967;43.538;-5.646;2023-04-15T02:53:15;101594.97;;;17.12
69704;BMP280;56967;43.538;-5.646;2023-04-15T02:55:41;101589.69;;;17.01
69704;BMP280;56967;43.538;-5.646;2023-04-15T02:58:07;101591.88;;;17.04
69704;BMP280;56967;43.538;-5.646;2023-04-15T03:00:32;101596.59;;;17.13
69704;BMP280;56967;43.538;-5.646;2023-04-15T03:03:02;101581.69;;;17.12
69704;BMP280;56967;43.538;-5.646;2023-04-15T03:05:28;101574.91;;;17.05
69704;BMP280;56967;43.538;-5.646;2023-04-15T03:07:53;101556.19;;;17.00
69704;BMP280;56967;43.538;-5.646;2023-04-15T03:10:19;101570.38;;;17.05
69704;BMP280;56967;43.538;-5.646;2023-04-15T03:12:45;101564.28;;;17.05
69704;BMP280;56967;43.538;-5.646;2023-04-15T03:15:11;101561.06;;;16.91
69704;BMP280;56967;43.538;-5.646;2023-04-15T03:17:37;101542.06;;;16.83
69704;BMP280;56967;43.538;-5.646;2023-04-15T03:20:03;101526.56;;;16.80
69704;BMP280;56967;43.538;-5.646;2023-04-15T03:22:32;101505.81;;;16.77
69704;BMP280;56967;43.538;-5.646;2023-04-15T03:24:58;101479.25;;;16.65
69704;BMP280;56967;43.538;-5.646;2023-04-15T03:27:24;101483.03;;;16.81
69704;BMP280;56967;43.538;-5.646;2023-04-15T03:29:50;101486.94;;;16.90
69704;BMP280;56967;43.538;-5.646;2023-04-15T03:32:16;101490.78;;;16.82
69704;BMP280;56967;43.538;-5.646;2023-04-15T03:34:42;101501.13;;;16.95
69704;BMP280;56967;43.538;-5.646;2023-04-15T03:37:08;101501.34;;;16.94
69704;BMP280;56967;43.538;-5.646;2023-04-15T03:39:34;101503.78;;;16.95
69704;BMP280;56967;43.538;-5.646;2023-04-15T03:42:00;101496.75;;;16.89
69704;BMP280;56967;43.538;-5.646;2023-04-15T03:44:26;101513.22;;;17.03
69704;BMP280;56967;43.538;-5.646;2023-04-15T03:46:52;101513.59;;;16.95
69704;BMP280;56967;43.538;-5.646;2023-04-15T03:49:17;101514.59;;;17.05
69704;BMP280;56967;43.538;-5.646;2023-04-15T03:51:43;101528.03;;;17.15
69704;BMP280;56967;43.538;-5.646;2023-04-15T03:54:09;101544.06;;;17.04
69704;BMP280;56967;43.538;-5.646;2023-04-15T03:56:36;101551.00;;;17.05
69704;BMP280;56967;43.538;-5.646;2023-04-15T03:59:01;101542.75;;;17.06
69704;BMP280;56967;43.538;-5.646;2023-04-15T04:01:27;101562.06;;;17.02
69704;BMP280;56967;43.538;-5.646;2023-04-15T04:03:52;101570.25;;;17.12
69704;BMP280;56967;43.538;-5.646;2023-04-15T04:06:18;101563.38;;;16.99
69704;BMP280;56967;43.538;-5.646;2023-04-15T04:08:44;101579.63;;;17.14
69704;BMP280;56967;43.538;-5.646;2023-04-15T04:11:09;101594.41;;;17.10
69704;BMP280;56967;43.538;-5.646;2023-04-15T04:13:35;101595.09;;;17.06
69704;BMP280;56967;43.538;-5.646;2023-04-15T04:16:01;101611.03;;;17.06
69704;BMP280;56967;43.538;-5.646;2023-04-15T04:18:28;101620.81;;;17.17
69704;BMP280;56967;43.538;-5.646;2023-04-15T04:20:54;101634.91;;;17.17
69704;BMP280;56967;43.538;-5.646;2023-04-15T04:23:20;101649.25;;;17.16
69704;BMP280;56967;43.538;-5.646;2023-04-15T04:25:45;101655.75;;;17.09
69704;BMP280;56967;43.538;-5.646;2023-04-15T04:28:11;101654.22;;;17.13
69704;BMP280;56967;43.538;-5.646;2023-04-15T04:30:36;101657.91;;;17.12
69704;BMP280;56967;43.538;-5.646;2023-04-15T04:33:02;101652.72;;;17.17
69704;BMP280;56967;43.538;-5.646;2023-04-15T04:35:28;101667.94;;;17.21
69704;BMP280;56967;43.538;-5.646;2023-04-15T04:37:53;101661.81;;;17.21
69704;BMP280;56967;43.538;-5.646;2023-04-15T04:40:19;101670.94;;;17.25
69704;BMP280;56967;43.538;-5.646;2023-04-15T04:42:44;101688.38;;;17.21
69704;BMP280;56967;43.538;-5.646;2023-04-15T04:45:10;101695.06;;;17.35
69704;BMP280;56967;43.538;-5.646;2023-04-15T04:47:36;101707.66;;;17.40
69704;BMP280;56967;43.538;-5.646;2023-04-15T04:50:01;101717.84;;;17.31
69704;BMP280;56967;43.538;-5.646;2023-04-15T04:52:27;101720.28;;;17.32
69704;BMP280;56967;43.538;-5.646;2023-04-15T04:54:53;101725.22;;;17.41
69704;BMP280;56967;43.538;-5.646;2023-04-15T04:57:18;101738.91;;;17.32
69704;BMP280;56967;43.538;-5.646;2023-04-15T04:59:44;101746.88;;;17.32
69704;BMP280;56967;43.538;-5.646;2023-04-15T05:02:09;101765.59;;;17.38
69704;BMP280;56967;43.538;-5.646;2023-04-15T05:04:35;101778.41;;;17.29
69704;BMP280;56967;43.538;-5.646;2023-04-15T05:07:01;101781.19;;;17.34
69704;BMP280;56967;43.538;-5.646;2023-04-15T05:09:26;101790.88;;;17.40
69704;BMP280;56967;43.538;-5.646;2023-04-15T05:11:52;101812.25;;;17.33
69704;BMP280;56967;43.538;-5.646;2023-04-15T05:14:17;101810.41;;;17.34
69704;BMP280;56967;43.538;-5.646;2023-04-15T05:16:43;101819.91;;;17.42
69704;BMP280;56967;43.538;-5.646;2023-04-15T05:19:08;101835.59;;;17.43
69704;BMP280;56967;43.538;-5.646;2023-04-15T05:21:34;101841.28;;;17.47
69704;BMP280;56967;43.538;-5.646;2023-04-15T05:24:00;101863.38;;;17.24
69704;BMP280;56967;43.538;-5.646;2023-04-15T05:26:25;101864.59;;;17.21
69704;BMP280;56967;43.538;-5.646;2023-04-15T05:28:51;101869.25;;;17.38
69704;BMP280;56967;43.538;-5.646;2023-04-15T05:31:17;101886.59;;;17.28
69704;BMP280;56967;43.538;-5.646;2023-04-15T05:33:42;101890.63;;;17.43
69704;BMP280;56967;43.538;-5.646;2023-04-15T05:36:08;101888.66;;;17.50
69704;BMP280;56967;43.538;-5.646;2023-04-15T05:38:34;101889.59;;;17.44
69704;BMP280;56967;43.538;-5.646;2023-04-15T05:41:00;101896.75;;;17.55
69704;BMP280;56967;43.538;-5.646;2023-04-15T05:43:25;101906.81;;;17.41
69704;BMP280;56967;43.538;-5.646;2023-04-15T05:45:51;101911.88;;;17.43
69704;BMP280;56967;43.538;-5.646;2023-04-15T05:48:16;101911.66;;;17.44
69704;BMP280;56967;43.538;-5.646;2023-04-15T05:50:42;101920.22;;;17.46
69704;BMP280;56967;43.538;-5.646;2023-04-15T05:53:08;101930.97;;;17.51
69704;BMP280;56967;43.538;-5.646;2023-04-15T05:55:33;101930.53;;;17.54
69704;BMP280;56967;43.538;-5.646;2023-04-15T05:57:59;101935.94;;;17.59
69704;BMP280;56967;43.538;-5.646;2023-04-15T06:00:24;101949.47;;;17.58
69704;BMP280;56967;43.538;-5.646;2023-04-15T06:02:50;101946.25;;;17.67
69704;BMP280;56967;43.538;-5.646;2023-04-15T06:05:16;101948.00;;;17.73
69704;BMP280;56967;43.538;-5.646;2023-04-15T06:07:42;101958.41;;;17.63
69704;BMP280;56967;43.538;-5.646;2023-04-15T06:10:08;101958.16;;;17.76
69704;BMP280;56967;43.538;-5.646;2023-04-15T06:12:34;101966.94;;;17.77
69704;BMP280;56967;43.538;-5.646;2023-04-15T06:15:00;101966.47;;;17.80
69704;BMP280;56967;43.538;-5.646;2023-04-15T06:17:26;101988.56;;;17.80
69704;BMP280;56967;43.538;-5.646;2023-04-15T06:19:51;101996.22;;;17.77
69704;BMP280;56967;43.538;-5.646;2023-04-15T06:22:23;101997.59;;;17.91
69704;BMP280;56967;43.538;-5.646;2023-04-15T06:24:49;101990.97;;;17.93
69704;BMP280;56967;43.538;-5.646;2023-04-15T06:27:16;102006.94;;;17.93
69704;BMP280;56967;43.538;-5.646;2023-04-15T06:29:42;102012.72;;;18.02
69704;BMP280;56967;43.538;-5.646;2023-04-15T06:32:07;102017.94;;;18.09
69704;BMP280;56967;43.538;-5.646;2023-04-15T06:34:33;102033.91;;;18.20
69704;BMP280;56967;43.538;-5.646;2023-04-15T06:36:58;102030.22;;;18.10
69704;BMP280;56967;43.538;-5.646;2023-04-15T06:39:25;102036.81;;;18.19
69704;BMP280;56967;43.538;-5.646;2023-04-15T06:41:51;102043.16;;;18.18
69704;BMP280;56967;43.538;-5.646;2023-04-15T06:44:17;102049.50;;;18.40
69704;BMP280;56967;43.538;-5.646;2023-04-15T06:46:43;102054.94;;;18.45
69704;BMP280;56967;43.538;-5.646;2023-04-15T06:49:09;102070.09;;;18.44
69704;BMP280;56967;43.538;-5.646;2023-04-15T06:51:35;102079.88;;;18.16
69704;BMP280;56967;43.538;-5.646;2023-04-15T06:54:02;102080.19;;;18.31
69704;BMP280;56967;43.538;-5.646;2023-04-15T06:56:30;102083.69;;;18.31
69704;BMP280;56967;43.538;-5.646;2023-04-15T06:58:56;102093.03;;;18.45
69704;BMP280;56967;43.538;-5.646;2023-04-15T07:01:22;102094.91;;;18.45
69704;BMP280;56967;43.538;-5.646;2023-04-15T07:03:47;102098.84;;;18.31
69704;BMP280;56967;43.538;-5.646;2023-04-15T07:06:13;102108.00;;;18.35
69704;BMP280;56967;43.538;-5.646;2023-04-15T07:08:38;102109.59;;;18.36
69704;BMP280;56967;43.538;-5.646;2023-04-15T07:11:04;102113.09;;;18.36
69704;BMP280;56967;43.538;-5.646;2023-04-15T07:13:31;102115.75;;;18.48
69704;BMP280;56967;43.538;-5.646;2023-04-15T07:15:56;102114.69;;;18.49
69704;BMP280;56967;43.538;-5.646;2023-04-15T07:18:22;102112.72;;;18.44
69704;BMP280;56967;43.538;-5.646;2023-04-15T07:20:47;102112.25;;;18.59
69704;BMP280;56967;43.538;-5.646;2023-04-15T07:23:13;102134.78;;;18.91
69704;BMP280;56967;43.538;-5.646;2023-04-15T07:25:39;102131.50;;;19.12
69704;BMP280;56967;43.538;-5.646;2023-04-15T07:28:04;102130.25;;;19.03
69704;BMP280;56967;43.538;-5.646;2023-04-15T07:30:30;102135.44;;;19.10
69704;BMP280;56967;43.538;-5.646;2023-04-15T07:32:56;102148.09;;;19.42
69704;BMP280;56967;43.538;-5.646;2023-04-15T07:35:23;102153.94;;;19.44
69704;BMP280;56967;43.538;-5.646;2023-04-15T07:37:50;102154.66;;;19.40
69704;BMP280;56967;43.538;-5.646;2023-04-15T07:40:16;102164.22;;;19.52
69704;BMP280;56967;43.538;-5.646;2023-04-15T07:42:42;102170.38;;;19.81
69704;BMP280;56967;43.538;-5.646;2023-04-15T07:45:08;102168.63;;;19.75
69704;BMP280;56967;43.538;-5.646;2023-04-15T07:47:34;102174.22;;;19.74
69704;BMP280;56967;43.538;-5.646;2023-04-15T07:50:00;102163.91;;;19.77
69704;BMP280;56967;43.538;-5.646;2023-04-15T07:52:26;102177.41;;;20.04
69704;BMP280;56967;43.538;-5.646;2023-04-15T07:54:52;102180.84;;;20.16
69704;BMP280;56967;43.538;-5.646;2023-04-15T07:57:18;102175.78;;;20.36
69704;BMP280;56967;43.538;-5.646;2023-04-15T07:59:43;102178.38;;;20.31
69704;BMP280;56967;43.538;-5.646;2023-04-15T08:02:10;102187.91;;;20.82
69704;BMP280;56967;43.538;-5.646;2023-04-15T08:04:35;102190.66;;;21.35
69704;BMP280;56967;43.538;-5.646;2023-04-15T08:07:02;102194.59;;;21.28
69704;BMP280;56967;43.538;-5.646;2023-04-15T08:09:28;102191.88;;;20.79
69704;BMP280;56967;43.538;-5.646;2023-04-15T08:11:54;102196.50;;;20.84
69704;BMP280;56967;43.538;-5.646;2023-04-15T08:14:20;102199.69;;;21.08
69704;BMP280;56967;43.538;-5.646;2023-04-15T08:16:46;102195.72;;;21.58
69704;BMP280;56967;43.538;-5.646;2023-04-15T08:19:12;102201.25;;;21.78
69704;BMP280;56967;43.538;-5.646;2023-04-15T08:21:37;102205.94;;;21.93
69704;BMP280;56967;43.538;-5.646;2023-04-15T08:24:03;102208.63;;;21.93
69704;BMP280;56967;43.538;-5.646;2023-04-15T08:26:28;102221.81;;;21.73
69704;BMP280;56967;43.538;-5.646;2023-04-15T08:28:54;102221.06;;;22.09
69704;BMP280;56967;43.538;-5.646;2023-04-15T08:31:20;102228.97;;;21.99
69704;BMP280;56967;43.538;-5.646;2023-04-15T08:33:46;102224.03;;;22.59
69704;BMP280;56967;43.538;-5.646;2023-04-15T08:36:11;102238.25;;;23.17
69704;BMP280;56967;43.538;-5.646;2023-04-15T08:38:38;102245.53;;;24.22
69704;BMP280;56967;43.538;-5.646;2023-04-15T08:41:10;102245.84;;;24.05
69704;BMP280;56967;43.538;-5.646;2023-04-15T08:43:45;102243.94;;;23.56
69704;BMP280;56967;43.538;-5.646;2023-04-15T08:46:14;102243.63;;;23.17
69704;BMP280;56967;43.538;-5.646;2023-04-15T08:48:43;102247.16;;;22.24
69704;BMP280;56967;43.538;-5.646;2023-04-15T08:51:09;102252.84;;;22.79
69704;BMP280;56967;43.538;-5.646;2023-04-15T08:53:36;102254.06;;;23.18
69704;BMP280;56967;43.538;-5.646;2023-04-15T08:56:04;102252.47;;;23.27
69704;BMP280;56967;43.538;-5.646;2023-04-15T08:58:32;102265.50;;;22.42
69704;BMP280;56967;43.538;-5.646;2023-04-15T09:00:58;102269.75;;;22.33
69704;BMP280;56967;43.538;-5.646;2023-04-15T09:03:24;102277.03;;;22.42
69704;BMP280;56967;43.538;-5.646;2023-04-15T09:05:50;102274.66;;;22.98
69704;BMP280;56967;43.538;-5.646;2023-04-15T09:08:16;102290.34;;;22.01
69704;BMP280;56967;43.538;-5.646;2023-04-15T09:10:42;102292.59;;;22.45
69704;BMP280;56967;43.538;-5.646;2023-04-15T09:13:07;102288.09;;;22.56
69704;BMP280;56967;43.538;-5.646;2023-04-15T09:15:36;102286.56;;;21.97
69704;BMP280;56967;43.538;-5.646;2023-04-15T09:18:02;102286.63;;;22.02
69704;BMP280;56967;43.538;-5.646;2023-04-15T09:20:28;102282.41;;;22.42
69704;BMP280;56967;43.538;-5.646;2023-04-15T09:22:54;102282.63;;;22.41
69704;BMP280;56967;43.538;-5.646;2023-04-15T09:28:01;102289.25;;;22.65
69704;BMP280;56967;43.538;-5.646;2023-04-15T09:30:27;102291.34;;;21.95
69704;BMP280;56967;43.538;-5.646;2023-04-15T09:32:58;102292.75;;;21.97
69704;BMP280;56967;43.538;-5.646;2023-04-15T09:35:25;102294.44;;;22.08
69704;BMP280;56967;43.538;-5.646;2023-04-15T09:37:52;102298.56;;;21.67
69704;BMP280;56967;43.538;-5.646;2023-04-15T09:43:00;102296.44;;;21.21
69704;BMP280;56967;43.538;-5.646;2023-04-15T09:45:27;102304.75;;;21.68
69704;BMP280;56967;43.538;-5.646;2023-04-15T09:47:53;102312.47;;;21.91
69704;BMP280;56967;43.538;-5.646;2023-04-15T09:50:19;102313.50;;;21.85
69704;BMP280;56967;43.538;-5.646;2023-04-15T09:52:46;102313.53;;;21.63
69704;BMP280;56967;43.538;-5.646;2023-04-15T09:55:13;102319.88;;;22.06
69704;BMP280;56967;43.538;-5.646;2023-04-15T09:57:39;102313.41;;;22.33
69704;BMP280;56967;43.538;-5.646;2023-04-15T10:00:12;102317.28;;;22.16
69704;BMP280;56967;43.538;-5.646;2023-04-15T10:02:39;102321.97;;;22.04
69704;BMP280;56967;43.538;-5.646;2023-04-15T10:05:09;102320.19;;;22.46
69704;BMP280;56967;43.538;-5.646;2023-04-15T10:07:35;102324.94;;;22.71
69704;BMP280;56967;43.538;-5.646;2023-04-15T10:10:02;102321.25;;;22.82
69704;BMP280;56967;43.538;-5.646;2023-04-15T10:12:29;102320.13;;;22.36
69704;BMP280;56967;43.538;-5.646;2023-04-15T10:14:58;102330.91;;;22.09
69704;BMP280;56967;43.538;-5.646;2023-04-15T10:17:27;102328.31;;;21.93
69704;BMP280;56967;43.538;-5.646;2023-04-15T10:20:00;102332.06;;;21.92
69704;BMP280;56967;43.538;-5.646;2023-04-15T10:22:27;102329.13;;;22.56
69704;BMP280;56967;43.538;-5.646;2023-04-15T10:24:55;102335.16;;;22.79
69704;BMP280;56967;43.538;-5.646;2023-04-15T10:27:21;102337.66;;;22.90
69704;BMP280;56967;43.538;-5.646;2023-04-15T10:29:49;102342.81;;;23.79
69704;BMP280;56967;43.538;-5.646;2023-04-15T10:32:23;102339.09;;;24.20
69704;BMP280;56967;43.538;-5.646;2023-04-15T10:34:50;102333.41;;;24.67
69704;BMP280;56967;43.538;-5.646;2023-04-15T10:37:33;102345.22;;;24.81
69704;BMP280;56967;43.538;-5.646;2023-04-15T10:39:59;102340.03;;;24.89
69704;BMP280;56967;43.538;-5.646;2023-04-15T10:42:32;102347.19;;;24.40
69704;BMP280;56967;43.538;-5.646;2023-04-15T10:44:59;102337.91;;;24.81
69704;BMP280;56967;43.538;-5.646;2023-04-15T10:47:24;102334.28;;;25.16
69704;BMP280;56967;43.538;-5.646;2023-04-15T10:49:56;102338.41;;;25.52
69704;BMP280;56967;43.538;-5.646;2023-04-15T10:52:24;102345.41;;;26.21
69704;BMP280;56967;43.538;-5.646;2023-04-15T10:55:14;102356.34;;;25.72
69704;BMP280;56967;43.538;-5.646;2023-04-15T10:57:41;102347.25;;;25.58
69704;BMP280;56967;43.538;-5.646;2023-04-15T11:00:12;102348.28;;;26.29
69704;BMP280;56967;43.538;-5.646;2023-04-15T11:05:04;102347.88;;;26.17
69704;BMP280;56967;43.538;-5.646;2023-04-15T11:12:46;102359.78;;;26.11
69704;BMP280;56967;43.538;-5.646;2023-04-15T11:15:39;102346.53;;;24.73
69704;BMP280;56967;43.538;-5.646;2023-04-15T11:20:38;102345.63;;;25.62
69704;BMP280;56967;43.538;-5.646;2023-04-15T11:23:04;102358.81;;;25.97
69704;BMP280;56967;43.538;-5.646;2023-04-15T11:25:32;102354.56;;;26.20
69704;BMP280;56967;43.538;-5.646;2023-04-15T11:27:59;102351.13;;;25.80
69704;BMP280;56967;43.538;-5.646;2023-04-15T11:30:32;102354.56;;;25.52
69704;BMP280;56967;43.538;-5.646;2023-04-15T11:33:00;102339.31;;;24.64
69704;BMP280;56967;43.538;-5.646;2023-04-15T11:35:26;102351.16;;;24.48
69704;BMP280;56967;43.538;-5.646;2023-04-15T11:37:53;102357.09;;;26.06
69704;BMP280;56967;43.538;-5.646;2023-04-15T11:40:26;102356.34;;;25.72
69704;BMP280;56967;43.538;-5.646;2023-04-15T11:43:06;102353.28;;;25.40
69704;BMP280;56967;43.538;-5.646;2023-04-15T11:45:31;102349.72;;;24.95
69704;BMP280;56967;43.538;-5.646;2023-04-15T11:48:09;102354.19;;;25.20
69704;BMP280;56967;43.538;-5.646;2023-04-15T11:50:37;102345.91;;;25.06
69704;BMP280;56967;43.538;-5.646;2023-04-15T11:53:06;102355.22;;;24.35
69704;BMP280;56967;43.538;-5.646;2023-04-15T11:55:49;102353.50;;;24.94
69704;BMP280;56967;43.538;-5.646;2023-04-15T11:58:20;102367.31;;;24.38
69704;BMP280;56967;43.538;-5.646;2023-04-15T12:00:55;102366.25;;;24.18
69704;BMP280;56967;43.538;-5.646;2023-04-15T12:03:23;102365.41;;;24.63
69704;BMP280;56967;43.538;-5.646;2023-04-15T12:14:26;102368.13;;;24.43
69704;BMP280;56967;43.538;-5.646;2023-04-15T12:17:01;102366.25;;;24.39
69704;BMP280;56967;43.538;-5.646;2023-04-15T12:19:29;102367.31;;;24.58
69704;BMP280;56967;43.538;-5.646;2023-04-15T12:22:00;102371.47;;;25.04
69704;BMP280;56967;43.538;-5.646;2023-04-15T12:24:25;102369.72;;;25.33
69704;BMP280;56967;43.538;-5.646;2023-04-15T12:26:53;102365.09;;;25.49
69704;BMP280;56967;43.538;-5.646;2023-04-15T12:29:19;102365.72;;;25.74
69704;BMP280;56967;43.538;-5.646;2023-04-15T12:31:54;102371.00;;;25.89
69704;BMP280;56967;43.538;-5.646;2023-04-15T12:34:40;102369.63;;;25.58
69704;BMP280;56967;43.538;-5.646;2023-04-15T12:37:07;102367.88;;;25.23
69704;BMP280;56967;43.538;-5.646;2023-04-15T12:39:35;102374.94;;;25.14
69704;BMP280;56967;43.538;-5.646;2023-04-15T12:42:02;102377.50;;;24.56
69704;BMP280;56967;43.538;-5.646;2023-04-15T12:44:28;102381.81;;;25.46
69704;BMP280;56967;43.538;-5.646;2023-04-15T12:46:54;102388.97;;;25.11
69704;BMP280;56967;43.538;-5.646;2023-04-15T12:49:21;102382.53;;;25.12
69704;BMP280;56967;43.538;-5.646;2023-04-15T12:51:55;102385.56;;;23.95
69704;BMP280;56967;43.538;-5.646;2023-04-15T12:54:21;102390.94;;;23.95
69704;BMP280;56967;43.538;-5.646;2023-04-15T12:56:48;102376.84;;;23.43
69704;BMP280;56967;43.538;-5.646;2023-04-15T12:59:14;102386.38;;;24.31
69704;BMP280;56967;43.538;-5.646;2023-04-15T13:01:41;102380.94;;;22.99
69704;BMP280;56967;43.538;-5.646;2023-04-15T13:04:06;102376.53;;;23.44
69704;BMP280;56967;43.538;-5.646;2023-04-15T13:06:32;102375.88;;;24.65
69704;BMP280;56967;43.538;-5.646;2023-04-15T13:08:59;102381.06;;;24.26
69704;BMP280;56967;43.538;-5.646;2023-04-15T13:11:26;102385.56;;;24.76
69704;BMP280;56967;43.538;-5.646;2023-04-15T13:13:51;102380.47;;;24.64
69704;BMP280;56967;43.538;-5.646;2023-04-15T13:16:17;102364.88;;;23.96
69704;BMP280;56967;43.538;-5.646;2023-04-15T13:18:43;102364.47;;;23.42
69704;BMP280;56967;43.538;-5.646;2023-04-15T13:21:11;102369.44;;;23.85
69704;BMP280;56967;43.538;-5.646;2023-04-15T13:23:37;102371.06;;;24.67
69704;BMP280;56967;43.538;-5.646;2023-04-15T13:26:02;102369.41;;;25.88
69704;BMP280;56967;43.538;-5.646;2023-04-15T13:28:28;102381.25;;;24.55
69704;BMP280;56967;43.538;-5.646;2023-04-15T13:30:54;102375.38;;;24.48
69704;BMP280;56967;43.538;-5.646;2023-04-15T13:33:19;102375.69;;;25.74
69704;BMP280;56967;43.538;-5.646;2023-04-15T13:35:45;102381.81;;;24.06
69704;BMP280;56967;43.538;-5.646;2023-04-15T13:38:10;102383.38;;;23.62
69704;BMP280;56967;43.538;-5.646;2023-04-15T13:40:36;102380.34;;;23.43
69704;BMP280;56967;43.538;-5.646;2023-04-15T13:43:01;102385.59;;;23.18
69704;BMP280;56967;43.538;-5.646;2023-04-15T13:45:27;102384.13;;;23.53
69704;BMP280;56967;43.538;-5.646;2023-04-15T13:47:54;102395.06;;;23.41
69704;BMP280;56967;43.538;-5.646;2023-04-15T13:50:20;102391.88;;;23.39
69704;BMP280;56967;43.538;-5.646;2023-04-15T13:52:46;102372.81;;;23.40
69704;BMP280;56967;43.538;-5.646;2023-04-15T13:55:11;102377.44;;;23.65
69704;BMP280;56967;43.538;-5.646;2023-04-15T13:57:37;102379.72;;;23.21
69704;BMP280;56967;43.538;-5.646;2023-04-15T14:00:03;102366.72;;;23.70
69704;BMP280;56967;43.538;-5.646;2023-04-15T14:02:28;102371.25;;;23.65
69704;BMP280;56967;43.538;-5.646;2023-04-15T14:04:54;102370.81;;;24.38